createdAt,value
2018-04-18T00:01:02.892Z,56.13
2018-04-18T00:03:32.504Z,55.73
2018-04-18T00:06:01.372Z,58.03
2018-04-18T00:08:30.353Z,59.57
2018-04-18T00:10:59.259Z,63.90
2018-04-18T00:13:28.064Z,70.17
2018-04-18T00:15:56.850Z,82.90
2018-04-18T00:18:25.787Z,84.40
2018-04-18T00:20:55.424Z,86.53
2018-04-18T00:36:24.364Z,77.07
2018-04-18T00:38:53.390Z,80.47
2018-04-18T00:41:22.235Z,73.33
2018-04-18T00:43:51.092Z,71.60
2018-04-18T00:46:20.043Z,69.87
2018-04-18T00:48:48.867Z,63.37
2018-04-18T00:51:17.782Z,63.03
2018-04-18T00:53:46.864Z,62.70
2018-04-18T00:56:15.784Z,61.37
2018-04-18T00:58:44.709Z,62.00
2018-04-18T01:01:13.678Z,59.07
2018-04-18T01:03:42.792Z,58.97
2018-04-18T01:06:11.554Z,58.80
2018-04-18T01:08:40.395Z,56.73
2018-04-18T01:11:09.393Z,58.53
2018-04-18T01:13:38.357Z,59.60
2018-04-18T01:16:07.920Z,59.07
2018-04-18T01:18:37.490Z,60.60
2018-04-18T01:21:06.578Z,59.53
2018-04-18T01:23:35.412Z,62.37
2018-04-18T01:26:05.195Z,68.27
2018-04-18T01:28:34.771Z,70.83
2018-04-18T01:31:03.729Z,71.43
2018-04-18T01:33:33.605Z,73.23
2018-04-18T01:36:03.316Z,73.87
2018-04-18T01:38:32.974Z,69.50
2018-04-18T01:41:01.775Z,66.80
2018-04-18T01:43:30.600Z,66.60
2018-04-18T01:46:00.308Z,59.83
2018-04-18T01:48:29.067Z,58.20
2018-04-18T01:50:57.812Z,59.57
2018-04-18T01:53:26.574Z,58.50
2018-04-18T01:55:55.570Z,57.23
2018-04-18T01:58:25.345Z,59.07
2018-04-18T02:00:54.476Z,60.63
2018-04-18T02:03:23.192Z,60.47
2018-04-18T02:05:52.079Z,59.13
2018-04-18T02:08:20.894Z,60.23
2018-04-18T02:10:49.882Z,61.70
2018-04-18T02:13:18.616Z,60.07
2018-04-18T02:15:47.415Z,59.93
2018-04-18T02:18:16.238Z,60.60
2018-04-18T02:20:45.052Z,58.40
2018-04-18T02:23:13.829Z,56.43
2018-04-18T02:25:42.793Z,57.50
2018-04-18T02:28:11.815Z,55.67
2018-04-18T02:30:40.694Z,55.63
2018-04-18T02:33:09.511Z,55.97
2018-04-18T02:35:38.315Z,58.30
2018-04-18T02:38:07.105Z,60.33
2018-04-18T02:40:35.965Z,62.00
2018-04-18T02:43:04.700Z,62.00
2018-04-18T02:45:34.465Z,63.90
2018-04-18T02:48:03.403Z,61.57
2018-04-18T02:50:33.119Z,61.63
2018-04-18T02:53:02.670Z,60.23
2018-04-18T02:55:31.416Z,58.83
2018-04-18T02:58:00.961Z,59.83
2018-04-18T03:00:29.844Z,60.07
2018-04-18T03:02:59.476Z,60.57
2018-04-18T03:05:28.287Z,59.60
2018-04-18T03:07:57.556Z,54.93
2018-04-18T03:10:26.532Z,55.30
2018-04-18T03:12:55.329Z,54.47
2018-04-18T03:15:24.120Z,52.77
2018-04-18T03:17:53.705Z,57.77
2018-04-18T03:20:23.264Z,55.17
2018-04-18T03:22:52.844Z,58.20
2018-04-18T03:25:21.704Z,60.20
2018-04-18T03:27:50.709Z,60.70
2018-04-18T03:30:19.582Z,61.27
2018-04-18T03:32:48.693Z,58.03
2018-04-18T03:35:17.590Z,57.43
2018-04-18T03:37:46.499Z,56.07
2018-04-18T03:40:15.325Z,56.60
2018-04-18T03:42:44.448Z,58.13
2018-04-18T03:45:13.242Z,56.73
2018-04-18T03:47:43.522Z,59.33
2018-04-18T03:50:12.473Z,56.90
2018-04-18T03:52:42.087Z,59.47
2018-04-18T03:55:10.835Z,58.10
2018-04-18T03:57:40.412Z,61.30
2018-04-18T04:00:10.031Z,61.13
2018-04-18T04:02:39.322Z,57.27
2018-04-18T04:05:10.327Z,59.13
2018-04-18T04:07:39.404Z,61.30
2018-04-18T04:10:08.684Z,64.27
2018-04-18T04:12:38.272Z,59.27
2018-04-18T04:15:07.311Z,58.73
2018-04-18T04:20:50.366Z,57.70
2018-04-18T04:23:31.697Z,61.57
2018-04-18T04:26:00.451Z,57.53
2018-04-18T04:28:33.591Z,54.47
2018-04-18T04:31:02.373Z,55.20
2018-04-18T04:33:31.363Z,55.50
2018-04-18T04:36:00.547Z,54.50
2018-04-18T04:38:29.624Z,55.07
2018-04-18T04:40:58.432Z,54.87
2018-04-18T04:43:28.064Z,54.13
2018-04-18T04:45:57.189Z,52.80
2018-04-18T04:48:25.998Z,51.50
2018-04-18T04:50:54.885Z,56.63
2018-04-18T04:53:23.858Z,56.43
2018-04-18T04:55:52.868Z,57.53
2018-04-18T04:58:21.992Z,58.87
2018-04-18T05:00:50.818Z,54.80
2018-04-18T05:03:19.667Z,59.03
2018-04-18T05:05:48.457Z,55.27
2018-04-18T05:08:18.277Z,55.47
2018-04-18T05:10:47.895Z,61.77
2018-04-18T05:13:16.637Z,55.03
2018-04-18T05:15:46.643Z,53.80
2018-04-18T05:18:15.488Z,55.00
2018-04-18T05:20:44.979Z,51.87
2018-04-18T05:23:14.056Z,52.57
2018-04-18T05:25:43.139Z,54.03
2018-04-18T05:28:12.894Z,54.33
2018-04-18T05:30:41.894Z,57.33
2018-04-18T05:33:11.492Z,57.87
2018-04-18T05:35:40.500Z,60.50
2018-04-18T05:38:09.468Z,57.90
2018-04-18T05:40:38.426Z,56.13
2018-04-18T05:43:07.222Z,58.00
2018-04-18T05:45:35.942Z,58.90
2018-04-18T05:48:05.140Z,59.70
2018-04-18T05:50:34.077Z,62.93
2018-04-18T05:53:04.031Z,60.77
2018-04-18T05:55:34.004Z,59.37
2018-04-18T05:58:02.819Z,62.73
2018-04-18T06:00:31.785Z,61.20
2018-04-18T06:03:00.597Z,60.67
2018-04-18T06:05:30.252Z,59.00
2018-04-18T06:07:59.071Z,56.63
2018-04-18T06:10:27.879Z,57.80
2018-04-18T06:12:56.813Z,58.10
2018-04-18T06:15:26.286Z,57.07
2018-04-18T06:17:55.047Z,55.47
2018-04-18T06:20:24.735Z,55.93
2018-04-18T06:22:53.553Z,54.57
2018-04-18T06:25:23.229Z,55.73
2018-04-18T06:27:53.007Z,55.03
2018-04-18T06:30:21.787Z,53.77
2018-04-18T06:32:50.560Z,53.70
2018-04-18T06:35:19.377Z,54.70
2018-04-18T06:37:48.408Z,54.80
2018-04-18T06:40:18.028Z,52.37
2018-04-18T06:42:47.074Z,53.20
2018-04-18T06:45:16.092Z,58.00
2018-04-18T06:47:45.673Z,58.70
2018-04-18T06:50:16.105Z,59.47
2018-04-18T06:52:45.196Z,56.67
2018-04-18T06:55:14.184Z,56.87
2018-04-18T06:57:43.020Z,54.13
2018-04-18T07:00:12.344Z,53.00
2018-04-18T07:02:41.632Z,53.50
2018-04-18T07:05:10.653Z,53.37
2018-04-18T07:07:39.667Z,51.60
2018-04-18T07:10:08.634Z,54.67
2018-04-18T07:12:37.853Z,52.20
2018-04-18T07:15:06.966Z,70.77
2018-04-18T07:17:36.481Z,66.63
2018-04-18T07:20:06.092Z,67.13
2018-04-18T07:22:34.909Z,63.63
2018-04-18T07:25:04.713Z,61.70
2018-04-18T07:27:34.369Z,64.20
2018-04-18T07:30:03.414Z,60.83
2018-04-18T07:32:32.320Z,62.40
2018-04-18T07:35:01.161Z,61.40
2018-04-18T07:37:29.961Z,60.27
2018-04-18T07:39:58.848Z,61.50
2018-04-18T07:42:28.031Z,63.53
2018-04-18T07:44:56.985Z,68.03
2018-04-18T07:47:25.712Z,65.50
2018-04-18T07:49:54.572Z,68.77
2018-04-18T07:52:23.395Z,68.40
2018-04-18T07:54:52.994Z,68.40
2018-04-18T07:57:21.988Z,74.27
2018-04-18T07:59:51.704Z,76.23
2018-04-18T08:02:22.264Z,64.80
2018-04-18T08:04:51.845Z,66.27
2018-04-18T08:07:27.858Z,64.40
2018-04-18T08:09:58.303Z,63.20
2018-04-18T08:12:27.059Z,62.20
2018-04-18T08:14:55.937Z,63.13
2018-04-18T08:17:24.823Z,61.13
2018-04-18T08:19:59.759Z,59.87
2018-04-18T08:22:29.281Z,60.60
2018-04-18T08:24:59.890Z,59.50
2018-04-18T08:27:28.970Z,59.10
2018-04-18T08:29:57.871Z,58.40
2018-04-18T08:32:27.382Z,65.07
2018-04-18T08:34:56.161Z,61.20
2018-04-18T08:37:24.964Z,61.93
2018-04-18T08:39:53.836Z,60.17
2018-04-18T08:42:23.766Z,57.23
2018-04-18T08:44:53.291Z,58.73
2018-04-18T08:47:22.362Z,62.60
2018-04-18T08:49:51.243Z,62.37
2018-04-18T08:52:20.213Z,57.90
2018-04-18T08:54:49.019Z,60.30
2018-04-18T08:57:19.121Z,59.47
2018-04-18T08:59:47.973Z,61.50
2018-04-18T09:02:17.735Z,60.77
2018-04-18T09:04:46.819Z,58.30
2018-04-18T09:07:15.933Z,58.63
2018-04-18T09:09:44.809Z,64.10
2018-04-18T09:12:14.655Z,61.47
2018-04-18T09:14:45.106Z,60.63
2018-04-18T09:17:14.124Z,58.83
2018-04-18T09:19:42.928Z,59.87
2018-04-18T09:22:11.809Z,58.70
2018-04-18T09:24:40.807Z,57.20
2018-04-18T09:27:09.554Z,58.40
2018-04-18T09:29:38.484Z,58.60
2018-04-18T09:32:07.601Z,61.17
2018-04-18T09:34:36.617Z,60.73
2018-04-18T09:37:06.521Z,61.13
2018-04-18T09:39:36.966Z,58.73
2018-04-18T09:42:06.837Z,61.17
2018-04-18T09:44:37.769Z,59.87
2018-04-18T09:47:07.089Z,57.87
2018-04-18T09:49:37.218Z,62.77
2018-04-18T09:52:07.132Z,61.37
2018-04-18T09:54:36.866Z,66.43
2018-04-18T09:57:05.675Z,62.07
2018-04-18T09:59:34.618Z,60.17
2018-04-18T10:02:10.131Z,59.00
2018-04-18T10:04:44.783Z,58.10
2018-04-18T10:07:13.569Z,60.57
2018-04-18T10:09:42.360Z,63.67
2018-04-18T10:12:11.592Z,58.93
2018-04-18T10:14:42.299Z,62.47
2018-04-18T10:17:12.566Z,65.17
2018-04-18T10:19:41.427Z,64.73
2018-04-18T10:22:10.404Z,67.57
2018-04-18T10:24:39.576Z,68.10
2018-04-18T10:27:09.336Z,68.63
2018-04-18T10:29:38.949Z,69.13
2018-04-18T10:32:07.786Z,59.13
2018-04-18T10:34:36.637Z,52.93
2018-04-18T10:37:05.729Z,50.03
2018-04-18T10:39:34.740Z,50.83
2018-04-18T10:42:04.688Z,51.27
2018-04-18T10:44:33.543Z,50.63
2018-04-18T10:47:02.633Z,54.00
2018-04-18T10:49:31.404Z,51.03
2018-04-18T10:52:00.711Z,56.83
2018-04-18T10:54:29.550Z,50.63
2018-04-18T10:56:58.572Z,49.30
2018-04-18T10:59:28.161Z,50.60
2018-04-18T11:01:57.141Z,47.77
2018-04-18T11:04:26.112Z,50.57
2018-04-18T11:06:54.947Z,50.67
2018-04-18T11:09:24.616Z,50.40
2018-04-18T11:11:53.486Z,48.33
2018-04-18T11:14:22.334Z,49.73
2018-04-18T11:16:51.920Z,49.03
2018-04-18T11:19:21.496Z,48.60
2018-04-18T11:21:50.300Z,50.37
2018-04-18T11:24:19.394Z,49.53
2018-04-18T11:26:48.412Z,46.17
2018-04-18T11:29:17.396Z,52.27
2018-04-18T11:31:46.150Z,51.70
2018-04-18T11:34:15.048Z,51.17
2018-04-18T11:36:43.918Z,51.80
2018-04-18T11:39:12.672Z,48.60
2018-04-18T11:41:42.464Z,44.97
2018-04-18T11:44:12.068Z,47.37
2018-04-18T11:46:41.649Z,47.80
2018-04-18T11:49:10.362Z,43.97
2018-04-18T11:51:39.384Z,48.20
2018-04-18T11:54:08.399Z,44.13
2018-04-18T11:56:37.545Z,47.10
2018-04-18T11:59:06.345Z,52.00
2018-04-18T12:01:35.292Z,42.77
2018-04-18T12:04:04.076Z,47.10
2018-04-18T12:06:32.988Z,42.93
2018-04-18T12:09:01.807Z,44.60
2018-04-18T12:11:30.696Z,45.23
2018-04-18T12:13:59.621Z,48.57
2018-04-18T12:16:28.397Z,47.63
2018-04-18T12:18:57.444Z,43.67
2018-04-18T12:21:26.245Z,43.10
2018-04-18T12:23:54.974Z,39.50
2018-04-18T12:26:23.778Z,45.47
2018-04-18T12:28:52.591Z,39.27
2018-04-18T12:31:21.491Z,41.37
2018-04-18T12:33:50.350Z,41.93
2018-04-18T12:36:19.240Z,42.03
2018-04-18T12:38:49.391Z,47.23
2018-04-18T12:41:18.394Z,42.53
2018-04-18T12:43:47.244Z,41.30
2018-04-18T12:46:16.087Z,42.63
2018-04-18T12:48:45.106Z,42.40
2018-04-18T12:51:14.360Z,44.50
2018-04-18T12:53:43.186Z,44.53
2018-04-18T12:56:12.004Z,44.70
2018-04-18T12:58:40.800Z,45.33
2018-04-18T13:01:09.902Z,40.43
2018-04-18T13:03:38.981Z,41.17
2018-04-18T13:06:07.888Z,42.57
2018-04-18T13:08:39.181Z,43.07
2018-04-18T13:11:08.772Z,39.97
2018-04-18T13:13:37.738Z,41.77
2018-04-18T13:16:12.439Z,41.53
2018-04-18T13:34:56.460Z,38.57
2018-04-18T13:37:25.442Z,42.40
2018-04-18T13:39:54.816Z,39.50
2018-04-18T13:42:23.693Z,42.20
2018-04-18T13:44:52.907Z,37.17
2018-04-18T13:47:21.938Z,37.83
2018-04-18T13:49:50.781Z,36.30
2018-04-18T13:52:19.824Z,36.27
2018-04-18T13:54:49.859Z,34.23
2018-04-18T13:57:19.506Z,31.33
2018-04-18T13:59:49.997Z,31.73
2018-04-18T14:02:19.570Z,31.17
2018-04-18T14:04:49.400Z,30.63
2018-04-18T14:07:19.260Z,31.07
2018-04-18T14:09:48.196Z,30.87
2018-04-18T14:12:17.043Z,31.40
2018-04-18T14:14:45.961Z,28.97
2018-04-18T14:17:14.820Z,28.27
2018-04-18T14:19:43.951Z,27.23
2018-04-18T14:22:12.767Z,28.67
2018-04-18T14:24:41.936Z,28.60
2018-04-18T14:27:10.678Z,28.67
2018-04-18T14:29:40.489Z,28.70
2018-04-18T14:32:09.557Z,28.47
2018-04-18T14:34:39.151Z,29.17
2018-04-18T14:37:08.284Z,26.53
2018-04-18T14:39:37.603Z,29.03
2018-04-18T14:42:06.500Z,28.50
2018-04-18T14:44:35.328Z,31.73
2018-04-18T14:47:04.434Z,28.33
2018-04-18T14:49:34.076Z,28.60
2018-04-18T14:52:03.087Z,26.90
2018-04-18T14:54:31.878Z,27.93
2018-04-18T14:57:00.606Z,28.90
2018-04-18T14:59:29.332Z,29.60
2018-04-18T15:01:58.166Z,30.17
2018-04-18T15:04:27.161Z,26.17
2018-04-18T15:06:56.852Z,33.50
2018-04-18T15:09:25.689Z,35.20
2018-04-18T15:11:54.748Z,28.23
2018-04-18T15:14:23.543Z,29.50
2018-04-18T15:16:52.608Z,31.53
2018-04-18T15:19:21.474Z,34.80
2018-04-18T15:21:51.058Z,27.27
2018-04-18T15:24:20.023Z,32.63
2018-04-18T15:26:48.876Z,31.13
2018-04-18T15:29:17.974Z,28.27
2018-04-18T15:31:46.803Z,30.73
2018-04-18T15:34:15.689Z,30.03
2018-04-18T15:36:44.526Z,24.90
2018-04-18T15:39:13.345Z,24.00
2018-04-18T15:41:42.164Z,24.53
2018-04-18T15:44:11.872Z,24.57
2018-04-18T15:46:40.745Z,25.50
2018-04-18T15:49:09.558Z,23.30
2018-04-18T15:51:39.174Z,25.00
2018-04-18T15:54:08.567Z,28.10
2018-04-18T15:56:38.132Z,27.33
2018-04-18T15:59:06.931Z,25.43
2018-04-18T16:01:35.822Z,25.33
2018-04-18T16:04:04.800Z,24.13
2018-04-18T16:06:33.563Z,25.30
2018-04-18T16:09:02.373Z,24.07
2018-04-18T16:11:31.803Z,25.97
2018-04-18T16:14:00.696Z,23.47
2018-04-18T16:16:29.532Z,28.77
2018-04-18T16:18:58.449Z,28.20
2018-04-18T16:21:27.348Z,28.90
2018-04-18T16:23:56.624Z,29.03
2018-04-18T16:26:26.303Z,27.20
2018-04-18T16:28:55.190Z,24.63
2018-04-18T16:31:23.963Z,24.80
2018-04-18T16:33:52.672Z,25.17
2018-04-18T16:36:22.449Z,27.27
2018-04-18T16:38:51.663Z,26.90
2018-04-18T16:41:20.552Z,28.17
2018-04-18T16:43:49.351Z,28.40
2018-04-18T16:46:18.121Z,30.70
2018-04-18T16:48:46.978Z,31.63
2018-04-18T16:51:16.736Z,30.80
2018-04-18T16:53:45.573Z,32.43
2018-04-18T16:56:16.050Z,29.60
2018-04-18T17:11:45.040Z,31.40
2018-04-18T17:14:14.371Z,30.97
2018-04-18T17:16:43.653Z,31.70
2018-04-18T17:19:14.062Z,32.77
2018-04-18T17:21:43.190Z,34.03
2018-04-18T17:24:13.364Z,33.60
2018-04-18T17:26:42.358Z,37.07
2018-04-18T17:29:11.649Z,32.50
2018-04-18T17:31:40.718Z,55.60
2018-04-18T17:34:10.575Z,60.37
2018-04-18T17:49:40.712Z,39.80
2018-04-18T17:52:10.438Z,42.10
2018-04-18T17:54:39.801Z,43.53
2018-04-18T17:57:08.806Z,44.23
2018-04-18T17:59:39.847Z,39.40
2018-04-18T18:02:08.799Z,33.80
2018-04-18T18:04:37.689Z,32.47
2018-04-18T18:07:06.571Z,34.73
2018-04-18T18:09:35.434Z,32.70
2018-04-18T18:12:04.273Z,32.20
2018-04-18T18:14:34.007Z,31.73
2018-04-18T18:17:02.956Z,28.47
2018-04-18T18:19:31.893Z,27.37
2018-04-18T18:22:02.727Z,26.33
2018-04-18T18:24:32.162Z,25.90
2018-04-18T18:27:01.744Z,24.57
2018-04-18T18:29:31.189Z,26.10
2018-04-18T18:32:01.268Z,25.50
2018-04-18T18:34:32.599Z,27.60
2018-04-18T18:37:01.683Z,26.83
2018-04-18T18:39:33.383Z,27.43
2018-04-18T18:42:07.875Z,28.27
2018-04-18T18:44:37.057Z,28.03
2018-04-18T18:49:36.092Z,28.43
2018-04-18T18:52:05.455Z,29.37
2018-04-18T18:54:35.942Z,30.27
2018-04-18T18:57:05.961Z,30.60
2018-04-18T18:59:37.090Z,29.33
2018-04-18T19:02:06.464Z,29.63
2018-04-18T19:04:35.676Z,30.23
2018-04-18T19:07:04.876Z,29.70
2018-04-18T19:09:33.724Z,28.60
2018-04-18T19:12:02.960Z,28.97
2018-04-18T19:14:31.921Z,28.30
2018-04-18T19:17:00.880Z,29.43
2018-04-18T19:19:29.928Z,27.80
2018-04-18T19:21:59.530Z,27.33
2018-04-18T19:24:28.483Z,27.43
2018-04-18T19:26:57.571Z,28.13
2018-04-18T19:29:27.883Z,28.17
2018-04-18T19:31:57.884Z,28.27
2018-04-18T19:34:26.739Z,30.30
2018-04-18T19:36:56.444Z,28.80
2018-04-18T19:39:28.385Z,29.63
2018-04-18T19:42:00.558Z,29.53
2018-04-18T19:44:30.699Z,29.60
2018-04-18T19:47:00.638Z,30.30
2018-04-18T19:49:32.186Z,31.13
2018-04-18T19:52:02.889Z,31.97
2018-04-18T19:54:32.291Z,34.00
2018-04-18T19:57:01.519Z,34.80
2018-04-18T19:59:30.480Z,35.47
2018-04-18T20:01:59.603Z,38.13
2018-04-18T20:04:28.547Z,38.23
2018-04-18T20:06:57.535Z,38.80
2018-04-18T20:09:27.047Z,37.97
2018-04-18T20:11:56.040Z,37.13
2018-04-18T20:14:26.207Z,37.30
2018-04-18T20:16:55.729Z,38.70
2018-04-18T20:19:24.824Z,44.23
2018-04-18T20:21:54.828Z,47.30
2018-04-18T20:24:23.841Z,51.13
2018-04-18T20:26:52.750Z,53.93
2018-04-18T20:29:21.736Z,53.40
2018-04-18T20:31:50.548Z,53.10
2018-04-18T20:34:19.731Z,50.90
2018-04-18T20:36:51.712Z,56.57
2018-04-18T20:39:21.342Z,62.70
2018-04-18T20:41:56.390Z,68.90
2018-04-18T20:44:25.761Z,69.50
2018-04-18T20:46:55.099Z,77.23
2018-04-18T20:49:24.503Z,82.27
2018-04-18T20:51:53.770Z,83.83
2018-04-18T20:54:23.292Z,81.90
2018-04-18T20:56:52.521Z,74.30
2018-04-18T20:59:21.271Z,64.40
2018-04-18T21:01:50.948Z,60.93
2018-04-18T21:04:19.754Z,60.33
2018-04-18T21:06:48.578Z,56.57
2018-04-18T21:09:17.441Z,54.73
2018-04-18T21:11:46.323Z,55.53
2018-04-18T21:14:15.127Z,56.57
2018-04-18T21:16:44.266Z,56.27
2018-04-18T21:19:13.495Z,58.10
2018-04-18T21:21:42.457Z,57.10
2018-04-18T21:24:11.318Z,56.43
2018-04-18T21:26:40.125Z,56.33
2018-04-18T21:29:08.977Z,53.90
2018-04-18T21:31:37.727Z,54.60
2018-04-18T21:34:06.468Z,55.47
2018-04-18T21:36:35.266Z,57.73
2018-04-18T21:39:04.949Z,59.37
2018-04-18T21:41:33.956Z,66.33
2018-04-18T21:44:02.942Z,67.37
2018-04-18T21:46:32.601Z,66.87
2018-04-18T21:49:01.374Z,62.23
2018-04-18T21:51:30.147Z,61.80
2018-04-18T21:53:58.977Z,65.20
2018-04-18T21:56:27.924Z,66.33
2018-04-18T21:58:56.681Z,72.43
2018-04-18T22:01:25.518Z,69.23
2018-04-18T22:03:55.073Z,62.07
2018-04-18T22:06:23.847Z,50.73
2018-04-18T22:08:52.832Z,47.40
2018-04-18T22:11:21.753Z,47.83
2018-04-18T22:13:51.364Z,46.03
2018-04-18T22:16:20.312Z,43.87
2018-04-18T22:18:49.334Z,45.43
2018-04-18T22:21:18.174Z,45.13
2018-04-18T22:23:47.002Z,45.47
2018-04-18T22:26:15.856Z,44.33
2018-04-18T22:28:45.773Z,46.33
2018-04-18T22:31:14.664Z,45.53
2018-04-18T22:33:43.900Z,46.07
2018-04-18T22:36:13.091Z,45.57
2018-04-18T22:38:41.872Z,46.30
2018-04-18T22:41:11.515Z,47.33
2018-04-18T22:43:40.332Z,48.13
2018-04-18T22:46:09.963Z,46.57
2018-04-18T22:48:39.493Z,48.00
2018-04-18T22:51:09.065Z,47.70
2018-04-18T22:53:38.053Z,48.47
2018-04-18T22:56:07.093Z,49.20
2018-04-18T22:58:35.902Z,48.83
2018-04-18T23:01:05.299Z,49.40
2018-04-18T23:03:34.914Z,48.20
2018-04-18T23:06:04.610Z,47.93
2018-04-18T23:08:34.180Z,48.53
2018-04-18T23:11:03.836Z,46.93
2018-04-18T23:13:33.102Z,47.20
2018-04-18T23:16:01.959Z,48.87
2018-04-18T23:18:31.740Z,48.47
2018-04-18T23:21:00.550Z,48.20
2018-04-18T23:23:30.312Z,49.10
2018-04-18T23:25:59.064Z,50.27
2018-04-18T23:28:27.893Z,50.73
2018-04-18T23:30:56.655Z,49.67
2018-04-18T23:33:26.361Z,51.17
2018-04-18T23:35:55.200Z,51.43
2018-04-18T23:38:24.017Z,49.30
2018-04-18T23:40:52.800Z,51.50
2018-04-18T23:43:22.340Z,50.10
2018-04-18T23:45:51.140Z,51.67
2018-04-18T23:48:20.049Z,53.30
2018-04-18T23:50:49.675Z,52.27
2018-04-18T23:53:18.549Z,51.00
2018-04-18T23:55:47.340Z,51.03
2018-04-18T23:58:16.290Z,50.97
